Caneadea, New York
Current Conditions -  °F | °C
As of 3:35 AM on Tuesday 21 Oct 2014 (Local Time) from KOLE Reporting Station
Light Rain Light Rain  
Wind Chill: 42°   Ceiling: 300
Heat Index: 45°   Visibility: 0.75mi
Dew Point: 45°   Wind: 5mph
Humidity: 100%   Direction: 210°SSW
Pressure: 29.79"   Gusts: NA
Location:  42.39°N, 78.15°W
Report Text: KOLE 210735Z AUTO 21004KT 3/4SM -RA OVC003 07/07 A2979 RMK AO2
Loading
Personal Weather Stations






























Interactive Weather Map
Tropical Storm Tracking
New forecast layout! Learn more

10-Day Weather Forecast

Advertisements
Track Severe Weather on mobile